sensor_id;sensor_type;location;lat;lon;timestamp;temperature;humidity
79500;SHT31;76397;53.172;18.140;2024-03-22T00:02:15;8.29;84.91
79500;SHT31;76397;53.172;18.140;2024-03-22T00:04:42;8.27;85.02
79500;SHT31;76397;53.172;18.140;2024-03-22T00:07:08;8.26;84.97
79500;SHT31;76397;53.172;18.140;2024-03-22T00:09:35;8.19;84.91
79500;SHT31;76397;53.172;18.140;2024-03-22T00:12:02;8.18;84.89
79500;SHT31;76397;53.172;18.140;2024-03-22T00:14:30;8.16;84.84
79500;SHT31;76397;53.172;18.140;2024-03-22T00:16:56;8.14;84.99
79500;SHT31;76397;53.172;18.140;2024-03-22T00:19:23;8.13;84.91
79500;SHT31;76397;53.172;18.140;2024-03-22T00:21:50;8.13;84.93
79500;SHT31;76397;53.172;18.140;2024-03-22T00:24:16;8.10;84.93
79500;SHT31;76397;53.172;18.140;2024-03-22T00:26:43;8.09;85.06
79500;SHT31;76397;53.172;18.140;2024-03-22T00:29:15;8.10;84.98
79500;SHT31;76397;53.172;18.140;2024-03-22T00:31:42;8.09;84.81
79500;SHT31;76397;53.172;18.140;2024-03-22T00:34:08;8.07;84.73
79500;SHT31;76397;53.172;18.140;2024-03-22T00:36:35;8.07;84.70
79500;SHT31;76397;53.172;18.140;2024-03-22T00:39:03;8.05;84.69
79500;SHT31;76397;53.172;18.140;2024-03-22T00:41:29;8.02;84.68
79500;SHT31;76397;53.172;18.140;2024-03-22T00:43:56;8.02;84.69
79500;SHT31;76397;53.172;18.140;2024-03-22T00:46:24;8.03;84.70
79500;SHT31;76397;53.172;18.140;2024-03-22T00:48:51;8.07;84.69
79500;SHT31;76397;53.172;18.140;2024-03-22T00:51:18;8.02;84.70
79500;SHT31;76397;53.172;18.140;2024-03-22T00:53:45;7.99;85.05
79500;SHT31;76397;53.172;18.140;2024-03-22T00:56:11;8.05;84.97
79500;SHT31;76397;53.172;18.140;2024-03-22T00:58:38;8.11;84.85
79500;SHT31;76397;53.172;18.140;2024-03-22T01:01:05;8.15;84.76
79500;SHT31;76397;53.172;18.140;2024-03-22T01:03:31;8.07;84.72
79500;SHT31;76397;53.172;18.140;2024-03-22T01:05:59;7.95;84.99
79500;SHT31;76397;53.172;18.140;2024-03-22T01:08:26;7.87;85.02
79500;SHT31;76397;53.172;18.140;2024-03-22T01:10:52;7.80;85.03
79500;SHT31;76397;53.172;18.140;2024-03-22T01:13:20;7.78;85.07
79500;SHT31;76397;53.172;18.140;2024-03-22T01:15:46;7.77;84.97
79500;SHT31;76397;53.172;18.140;2024-03-22T01:18:13;7.76;85.13
79500;SHT31;76397;53.172;18.140;2024-03-22T01:20:40;7.74;85.25
79500;SHT31;76397;53.172;18.140;2024-03-22T01:23:08;7.73;85.38
79500;SHT31;76397;53.172;18.140;2024-03-22T01:25:35;7.77;85.28
79500;SHT31;76397;53.172;18.140;2024-03-22T01:28:02;7.79;85.12
79500;SHT31;76397;53.172;18.140;2024-03-22T01:30:30;7.81;84.97
79500;SHT31;76397;53.172;18.140;2024-03-22T01:32:57;7.76;85.02
79500;SHT31;76397;53.172;18.140;2024-03-22T01:35:24;7.78;84.95
79500;SHT31;76397;53.172;18.140;2024-03-22T01:37:51;7.79;84.80
79500;SHT31;76397;53.172;18.140;2024-03-22T01:40:18;7.82;84.71
79500;SHT31;76397;53.172;18.140;2024-03-22T01:42:44;7.84;84.61
79500;SHT31;76397;53.172;18.140;2024-03-22T01:45:11;7.84;84.50
79500;SHT31;76397;53.172;18.140;2024-03-22T01:47:41;7.80;84.50
79500;SHT31;76397;53.172;18.140;2024-03-22T01:50:09;7.73;84.58
79500;SHT31;76397;53.172;18.140;2024-03-22T01:52:38;7.66;84.77
79500;SHT31;76397;53.172;18.140;2024-03-22T01:55:07;7.61;84.91
79500;SHT31;76397;53.172;18.140;2024-03-22T01:57:34;7.62;85.00
79500;SHT31;76397;53.172;18.140;2024-03-22T02:00:01;7.65;84.92
79500;SHT31;76397;53.172;18.140;2024-03-22T02:02:29;7.69;84.88
79500;SHT31;76397;53.172;18.140;2024-03-22T02:04:56;7.62;84.87
79500;SHT31;76397;53.172;18.140;2024-03-22T02:07:24;7.64;84.94
79500;SHT31;76397;53.172;18.140;2024-03-22T02:09:50;7.69;84.70
79500;SHT31;76397;53.172;18.140;2024-03-22T02:12:17;7.73;84.61
79500;SHT31;76397;53.172;18.140;2024-03-22T02:14:44;7.80;84.55
79500;SHT31;76397;53.172;18.140;2024-03-22T02:17:11;7.86;84.44
79500;SHT31;76397;53.172;18.140;2024-03-22T02:19:37;7.93;84.34
79500;SHT31;76397;53.172;18.140;2024-03-22T02:22:04;7.90;84.25
79500;SHT31;76397;53.172;18.140;2024-03-22T02:24:31;7.88;84.34
79500;SHT31;76397;53.172;18.140;2024-03-22T02:26:58;7.87;84.34
79500;SHT31;76397;53.172;18.140;2024-03-22T02:29:24;7.95;84.32
79500;SHT31;76397;53.172;18.140;2024-03-22T02:31:51;7.87;84.15
79500;SHT31;76397;53.172;18.140;2024-03-22T02:34:18;7.84;84.20
79500;SHT31;76397;53.172;18.140;2024-03-22T02:36:44;7.74;84.04
79500;SHT31;76397;53.172;18.140;2024-03-22T02:39:11;7.68;84.10
79500;SHT31;76397;53.172;18.140;2024-03-22T02:41:37;7.65;84.20
79500;SHT31;76397;53.172;18.140;2024-03-22T02:44:04;7.62;84.15
79500;SHT31;76397;53.172;18.140;2024-03-22T02:46:31;7.61;84.16
79500;SHT31;76397;53.172;18.140;2024-03-22T02:48:57;7.62;84.18
79500;SHT31;76397;53.172;18.140;2024-03-22T02:51:24;7.61;84.12
79500;SHT31;76397;53.172;18.140;2024-03-22T02:53:51;7.58;84.10
79500;SHT31;76397;53.172;18.140;2024-03-22T02:56:17;7.58;84.09
79500;SHT31;76397;53.172;18.140;2024-03-22T02:58:44;7.59;84.00
79500;SHT31;76397;53.172;18.140;2024-03-22T03:01:11;7.60;83.94
79500;SHT31;76397;53.172;18.140;2024-03-22T03:03:38;7.62;83.77
79500;SHT31;76397;53.172;18.140;2024-03-22T03:06:04;7.57;83.65
79500;SHT31;76397;53.172;18.140;2024-03-22T03:08:32;7.51;83.68
79500;SHT31;76397;53.172;18.140;2024-03-22T03:10:58;7.46;83.79
79500;SHT31;76397;53.172;18.140;2024-03-22T03:13:25;7.44;83.87
79500;SHT31;76397;53.172;18.140;2024-03-22T03:15:52;7.44;83.96
79500;SHT31;76397;53.172;18.140;2024-03-22T03:18:19;7.48;84.00
79500;SHT31;76397;53.172;18.140;2024-03-22T03:20:45;7.51;83.90
79500;SHT31;76397;53.172;18.140;2024-03-22T03:23:12;7.53;83.87
79500;SHT31;76397;53.172;18.140;2024-03-22T03:25:38;7.52;83.79
79500;SHT31;76397;53.172;18.140;2024-03-22T03:28:05;7.53;83.77
79500;SHT31;76397;53.172;18.140;2024-03-22T03:30:37;7.50;83.66
79500;SHT31;76397;53.172;18.140;2024-03-22T03:33:03;7.46;83.70
79500;SHT31;76397;53.172;18.140;2024-03-22T03:35:30;7.41;83.80
79500;SHT31;76397;53.172;18.140;2024-03-22T03:37:57;7.36;83.86
79500;SHT31;76397;53.172;18.140;2024-03-22T03:40:24;7.33;83.92
79500;SHT31;76397;53.172;18.140;2024-03-22T03:42:51;7.34;83.93
79500;SHT31;76397;53.172;18.140;2024-03-22T03:45:17;7.39;83.90
79500;SHT31;76397;53.172;18.140;2024-03-22T03:47:44;7.47;83.87
79500;SHT31;76397;53.172;18.140;2024-03-22T03:50:11;7.50;83.72
79500;SHT31;76397;53.172;18.140;2024-03-22T03:52:38;7.53;83.63
79500;SHT31;76397;53.172;18.140;2024-03-22T03:55:05;7.55;83.59
79500;SHT31;76397;53.172;18.140;2024-03-22T03:57:32;7.53;83.57
79500;SHT31;76397;53.172;18.140;2024-03-22T03:59:59;7.50;83.59
79500;SHT31;76397;53.172;18.140;2024-03-22T04:02:26;7.45;83.63
79500;SHT31;76397;53.172;18.140;2024-03-22T04:04:52;7.40;83.73
79500;SHT31;76397;53.172;18.140;2024-03-22T04:07:20;7.37;83.81
79500;SHT31;76397;53.172;18.140;2024-03-22T04:09:47;7.34;83.90
79500;SHT31;76397;53.172;18.140;2024-03-22T04:12:14;7.35;83.90
79500;SHT31;76397;53.172;18.140;2024-03-22T04:14:41;7.36;83.90
79500;SHT31;76397;53.172;18.140;2024-03-22T04:17:07;7.42;83.94
79500;SHT31;76397;53.172;18.140;2024-03-22T04:19:34;7.45;83.86
79500;SHT31;76397;53.172;18.140;2024-03-22T04:22:01;7.47;83.82
79500;SHT31;76397;53.172;18.140;2024-03-22T04:24:28;7.53;83.79
79500;SHT31;76397;53.172;18.140;2024-03-22T04:26:54;7.56;83.68
79500;SHT31;76397;53.172;18.140;2024-03-22T04:29:21;7.51;83.45
79500;SHT31;76397;53.172;18.140;2024-03-22T04:31:47;7.49;83.44
79500;SHT31;76397;53.172;18.140;2024-03-22T04:34:14;7.48;83.49
79500;SHT31;76397;53.172;18.140;2024-03-22T04:36:41;7.42;83.43
79500;SHT31;76397;53.172;18.140;2024-03-22T04:39:07;7.31;83.52
79500;SHT31;76397;53.172;18.140;2024-03-22T04:41:36;7.24;83.63
79500;SHT31;76397;53.172;18.140;2024-03-22T04:44:02;7.13;83.80
79500;SHT31;76397;53.172;18.140;2024-03-22T04:46:30;7.07;83.91
79500;SHT31;76397;53.172;18.140;2024-03-22T04:48:56;7.05;84.00
79500;SHT31;76397;53.172;18.140;2024-03-22T04:51:23;7.06;83.95
79500;SHT31;76397;53.172;18.140;2024-03-22T04:53:50;7.09;83.88
79500;SHT31;76397;53.172;18.140;2024-03-22T04:56:16;7.08;83.74
79500;SHT31;76397;53.172;18.140;2024-03-22T04:58:43;7.05;83.82
79500;SHT31;76397;53.172;18.140;2024-03-22T05:01:09;7.02;83.72
79500;SHT31;76397;53.172;18.140;2024-03-22T05:03:38;7.02;83.72
79500;SHT31;76397;53.172;18.140;2024-03-22T05:06:07;6.99;83.81
79500;SHT31;76397;53.172;18.140;2024-03-22T05:08:34;6.97;83.80
79500;SHT31;76397;53.172;18.140;2024-03-22T05:11:00;6.85;83.87
79500;SHT31;76397;53.172;18.140;2024-03-22T05:13:27;6.77;84.11
79500;SHT31;76397;53.172;18.140;2024-03-22T05:15:54;6.75;84.28
79500;SHT31;76397;53.172;18.140;2024-03-22T05:18:21;6.73;84.30
79500;SHT31;76397;53.172;18.140;2024-03-22T05:20:47;6.72;84.30
79500;SHT31;76397;53.172;18.140;2024-03-22T05:23:14;6.71;84.27
79500;SHT31;76397;53.172;18.140;2024-03-22T05:25:42;6.74;84.29
79500;SHT31;76397;53.172;18.140;2024-03-22T05:28:09;6.77;84.19
79500;SHT31;76397;53.172;18.140;2024-03-22T05:30:36;6.79;84.20
79500;SHT31;76397;53.172;18.140;2024-03-22T05:33:03;6.81;84.18
79500;SHT31;76397;53.172;18.140;2024-03-22T05:35:29;6.77;84.14
79500;SHT31;76397;53.172;18.140;2024-03-22T05:37:56;6.74;84.19
79500;SHT31;76397;53.172;18.140;2024-03-22T05:40:23;6.74;84.27
79500;SHT31;76397;53.172;18.140;2024-03-22T05:42:50;6.75;84.26
79500;SHT31;76397;53.172;18.140;2024-03-22T05:45:16;6.80;84.26
79500;SHT31;76397;53.172;18.140;2024-03-22T05:47:43;6.82;84.19
79500;SHT31;76397;53.172;18.140;2024-03-22T05:50:10;6.79;84.19
79500;SHT31;76397;53.172;18.140;2024-03-22T05:52:36;6.75;84.19
79500;SHT31;76397;53.172;18.140;2024-03-22T05:55:03;6.76;84.20
79500;SHT31;76397;53.172;18.140;2024-03-22T05:57:31;6.80;84.18
79500;SHT31;76397;53.172;18.140;2024-03-22T05:59:58;6.84;84.03
79500;SHT31;76397;53.172;18.140;2024-03-22T06:02:24;6.93;83.87
79500;SHT31;76397;53.172;18.140;2024-03-22T06:04:51;6.99;83.76
79500;SHT31;76397;53.172;18.140;2024-03-22T06:07:18;7.02;83.74
79500;SHT31;76397;53.172;18.140;2024-03-22T06:09:45;7.07;83.85
79500;SHT31;76397;53.172;18.140;2024-03-22T06:12:12;7.10;83.81
79500;SHT31;76397;53.172;18.140;2024-03-22T06:14:40;7.11;83.83
79500;SHT31;76397;53.172;18.140;2024-03-22T06:17:09;7.11;83.79
79500;SHT31;76397;53.172;18.140;2024-03-22T06:19:36;7.12;83.72
79500;SHT31;76397;53.172;18.140;2024-03-22T06:22:03;7.13;83.72
79500;SHT31;76397;53.172;18.140;2024-03-22T06:24:30;7.14;83.67
79500;SHT31;76397;53.172;18.140;2024-03-22T06:26:57;7.14;83.57
79500;SHT31;76397;53.172;18.140;2024-03-22T06:29:24;7.18;83.70
79500;SHT31;76397;53.172;18.140;2024-03-22T06:31:50;7.21;83.64
79500;SHT31;76397;53.172;18.140;2024-03-22T06:34:18;7.23;83.51
79500;SHT31;76397;53.172;18.140;2024-03-22T06:36:46;7.23;83.47
79500;SHT31;76397;53.172;18.140;2024-03-22T06:39:14;7.25;83.47
79500;SHT31;76397;53.172;18.140;2024-03-22T06:41:41;7.26;83.46
79500;SHT31;76397;53.172;18.140;2024-03-22T06:44:07;7.24;83.44
79500;SHT31;76397;53.172;18.140;2024-03-22T06:46:38;7.23;83.34
79500;SHT31;76397;53.172;18.140;2024-03-22T06:49:06;7.24;83.39
79500;SHT31;76397;53.172;18.140;2024-03-22T06:51:32;7.30;83.38
79500;SHT31;76397;53.172;18.140;2024-03-22T06:53:59;7.33;83.29
79500;SHT31;76397;53.172;18.140;2024-03-22T06:56:26;7.37;83.43
79500;SHT31;76397;53.172;18.140;2024-03-22T06:58:52;7.44;83.38
79500;SHT31;76397;53.172;18.140;2024-03-22T07:01:19;7.50;83.21
79500;SHT31;76397;53.172;18.140;2024-03-22T07:03:47;7.47;83.01
79500;SHT31;76397;53.172;18.140;2024-03-22T07:06:14;7.47;83.13
79500;SHT31;76397;53.172;18.140;2024-03-22T07:08:41;7.43;83.08
79500;SHT31;76397;53.172;18.140;2024-03-22T07:11:08;7.41;83.22
79500;SHT31;76397;53.172;18.140;2024-03-22T07:13:35;7.43;83.35
79500;SHT31;76397;53.172;18.140;2024-03-22T07:16:02;7.47;83.23
79500;SHT31;76397;53.172;18.140;2024-03-22T07:18:30;7.46;83.13
79500;SHT31;76397;53.172;18.140;2024-03-22T07:20:57;7.44;83.23
79500;SHT31;76397;53.172;18.140;2024-03-22T07:23:28;7.48;83.32
79500;SHT31;76397;53.172;18.140;2024-03-22T07:25:54;7.62;83.33
79500;SHT31;76397;53.172;18.140;2024-03-22T07:28:21;7.86;82.83
79500;SHT31;76397;53.172;18.140;2024-03-22T07:30:48;8.03;82.50
79500;SHT31;76397;53.172;18.140;2024-03-22T07:33:15;8.11;82.41
79500;SHT31;76397;53.172;18.140;2024-03-22T07:35:44;8.13;82.23
79500;SHT31;76397;53.172;18.140;2024-03-22T07:38:11;8.15;82.23
79500;SHT31;76397;53.172;18.140;2024-03-22T07:40:37;8.19;82.30
79500;SHT31;76397;53.172;18.140;2024-03-22T07:43:04;8.14;82.10
79500;SHT31;76397;53.172;18.140;2024-03-22T07:45:34;8.10;82.23
79500;SHT31;76397;53.172;18.140;2024-03-22T07:48:01;8.12;82.18
79500;SHT31;76397;53.172;18.140;2024-03-22T07:50:28;8.10;81.98
79500;SHT31;76397;53.172;18.140;2024-03-22T07:52:55;8.07;81.99
79500;SHT31;76397;53.172;18.140;2024-03-22T07:55:22;8.07;81.95
79500;SHT31;76397;53.172;18.140;2024-03-22T07:57:49;8.12;81.81
79500;SHT31;76397;53.172;18.140;2024-03-22T08:00:17;8.17;81.91
79500;SHT31;76397;53.172;18.140;2024-03-22T08:02:44;8.26;82.22
79500;SHT31;76397;53.172;18.140;2024-03-22T08:05:11;8.31;81.97
79500;SHT31;76397;53.172;18.140;2024-03-22T08:07:38;8.29;81.67
79500;SHT31;76397;53.172;18.140;2024-03-22T08:10:05;8.33;81.78
79500;SHT31;76397;53.172;18.140;2024-03-22T08:12:32;8.43;81.43
79500;SHT31;76397;53.172;18.140;2024-03-22T08:15:00;8.49;81.24
79500;SHT31;76397;53.172;18.140;2024-03-22T08:17:26;8.53;81.13
79500;SHT31;76397;53.172;18.140;2024-03-22T08:19:53;8.58;81.38
79500;SHT31;76397;53.172;18.140;2024-03-22T08:22:19;8.65;81.36
79500;SHT31;76397;53.172;18.140;2024-03-22T08:24:46;8.72;81.22
79500;SHT31;76397;53.172;18.140;2024-03-22T08:27:13;8.80;81.09
79500;SHT31;76397;53.172;18.140;2024-03-22T08:29:39;8.88;80.78
79500;SHT31;76397;53.172;18.140;2024-03-22T08:32:07;8.98;80.96
79500;SHT31;76397;53.172;18.140;2024-03-22T08:34:34;9.04;80.48
79500;SHT31;76397;53.172;18.140;2024-03-22T08:37:01;9.10;80.13
79500;SHT31;76397;53.172;18.140;2024-03-22T08:39:30;9.17;80.03
79500;SHT31;76397;53.172;18.140;2024-03-22T08:41:57;9.18;79.87
79500;SHT31;76397;53.172;18.140;2024-03-22T08:44:24;9.20;79.60
79500;SHT31;76397;53.172;18.140;2024-03-22T08:46:50;9.17;79.53
79500;SHT31;76397;53.172;18.140;2024-03-22T08:49:18;9.20;79.09
79500;SHT31;76397;53.172;18.140;2024-03-22T08:51:46;9.31;78.91
79500;SHT31;76397;53.172;18.140;2024-03-22T08:54:14;9.37;78.80
79500;SHT31;76397;53.172;18.140;2024-03-22T08:56:40;9.46;78.55
79500;SHT31;76397;53.172;18.140;2024-03-22T08:59:07;9.56;78.30
79500;SHT31;76397;53.172;18.140;2024-03-22T09:01:34;9.75;78.23
79500;SHT31;76397;53.172;18.140;2024-03-22T09:04:01;10.01;77.65
79500;SHT31;76397;53.172;18.140;2024-03-22T09:06:29;10.11;77.05
79500;SHT31;76397;53.172;18.140;2024-03-22T09:08:56;10.30;76.89
79500;SHT31;76397;53.172;18.140;2024-03-22T09:11:24;10.56;76.31
79500;SHT31;76397;53.172;18.140;2024-03-22T09:13:52;10.64;75.90
79500;SHT31;76397;53.172;18.140;2024-03-22T09:16:20;10.56;75.78
79500;SHT31;76397;53.172;18.140;2024-03-22T09:18:47;10.44;76.30
79500;SHT31;76397;53.172;18.140;2024-03-22T09:21:14;10.35;76.51
79500;SHT31;76397;53.172;18.140;2024-03-22T09:23:41;10.23;76.40
79500;SHT31;76397;53.172;18.140;2024-03-22T09:26:08;10.17;76.59
79500;SHT31;76397;53.172;18.140;2024-03-22T09:28:34;10.06;76.27
79500;SHT31;76397;53.172;18.140;2024-03-22T09:31:04;9.98;76.18
79500;SHT31;76397;53.172;18.140;2024-03-22T09:33:33;9.95;76.35
79500;SHT31;76397;53.172;18.140;2024-03-22T09:36:00;9.92;76.72
79500;SHT31;76397;53.172;18.140;2024-03-22T09:38:28;9.82;76.79
79500;SHT31;76397;53.172;18.140;2024-03-22T09:40:55;9.71;76.82
79500;SHT31;76397;53.172;18.140;2024-03-22T09:43:22;9.65;77.30
79500;SHT31;76397;53.172;18.140;2024-03-22T09:45:51;9.58;77.43
79500;SHT31;76397;53.172;18.140;2024-03-22T09:48:18;9.52;77.40
79500;SHT31;76397;53.172;18.140;2024-03-22T09:50:46;9.61;77.49
79500;SHT31;76397;53.172;18.140;2024-03-22T09:53:17;9.78;77.39
79500;SHT31;76397;53.172;18.140;2024-03-22T09:55:48;9.96;77.12
79500;SHT31;76397;53.172;18.140;2024-03-22T09:58:18;10.20;76.65
79500;SHT31;76397;53.172;18.140;2024-03-22T10:00:45;10.51;76.33
79500;SHT31;76397;53.172;18.140;2024-03-22T10:03:12;10.93;74.87
79500;SHT31;76397;53.172;18.140;2024-03-22T10:05:39;11.41;74.27
79500;SHT31;76397;53.172;18.140;2024-03-22T10:08:06;11.68;72.72
79500;SHT31;76397;53.172;18.140;2024-03-22T10:10:33;11.89;72.51
79500;SHT31;76397;53.172;18.140;2024-03-22T10:13:01;12.01;72.45
79500;SHT31;76397;53.172;18.140;2024-03-22T10:15:30;11.93;72.31
79500;SHT31;76397;53.172;18.140;2024-03-22T10:17:57;11.59;71.69
79500;SHT31;76397;53.172;18.140;2024-03-22T10:20:24;11.32;71.59
79500;SHT31;76397;53.172;18.140;2024-03-22T10:22:55;11.24;71.93
79500;SHT31;76397;53.172;18.140;2024-03-22T10:25:27;11.13;71.70
79500;SHT31;76397;53.172;18.140;2024-03-22T10:27:56;10.98;71.79
79500;SHT31;76397;53.172;18.140;2024-03-22T10:30:25;10.94;72.17
79500;SHT31;76397;53.172;18.140;2024-03-22T10:32:52;10.96;72.25
79500;SHT31;76397;53.172;18.140;2024-03-22T10:35:20;11.07;72.00
79500;SHT31;76397;53.172;18.140;2024-03-22T10:37:48;11.29;72.18
79500;SHT31;76397;53.172;18.140;2024-03-22T10:40:17;11.51;72.01
79500;SHT31;76397;53.172;18.140;2024-03-22T10:42:44;11.65;71.94
79500;SHT31;76397;53.172;18.140;2024-03-22T10:45:12;11.61;71.64
79500;SHT31;76397;53.172;18.140;2024-03-22T10:47:39;11.48;71.60
79500;SHT31;76397;53.172;18.140;2024-03-22T10:50:07;11.37;70.79
79500;SHT31;76397;53.172;18.140;2024-03-22T10:55:34;11.48;71.15
79500;SHT31;76397;53.172;18.140;2024-03-22T10:58:04;11.51;71.17
79500;SHT31;76397;53.172;18.140;2024-03-22T11:00:32;11.56;70.98
79500;SHT31;76397;53.172;18.140;2024-03-22T11:03:04;11.53;70.87
79500;SHT31;76397;53.172;18.140;2024-03-22T11:05:31;11.35;71.11
79500;SHT31;76397;53.172;18.140;2024-03-22T11:08:04;11.15;70.88
79500;SHT31;76397;53.172;18.140;2024-03-22T11:10:35;10.88;71.09
79500;SHT31;76397;53.172;18.140;2024-03-22T11:13:03;10.66;71.35
79500;SHT31;76397;53.172;18.140;2024-03-22T11:15:33;10.54;72.17
79500;SHT31;76397;53.172;18.140;2024-03-22T11:18:01;10.47;72.40
79500;SHT31;76397;53.172;18.140;2024-03-22T11:20:28;10.42;72.48
79500;SHT31;76397;53.172;18.140;2024-03-22T11:22:56;10.37;72.19
79500;SHT31;76397;53.172;18.140;2024-03-22T11:25:23;10.30;72.37
79500;SHT31;76397;53.172;18.140;2024-03-22T11:27:50;10.19;72.89
79500;SHT31;76397;53.172;18.140;2024-03-22T11:30:17;10.12;73.16
79500;SHT31;76397;53.172;18.140;2024-03-22T11:32:44;10.04;73.81
79500;SHT31;76397;53.172;18.140;2024-03-22T11:35:12;10.00;74.29
79500;SHT31;76397;53.172;18.140;2024-03-22T11:37:41;9.96;74.51
79500;SHT31;76397;53.172;18.140;2024-03-22T11:40:09;9.97;74.57
79500;SHT31;76397;53.172;18.140;2024-03-22T11:42:39;9.98;74.97
79500;SHT31;76397;53.172;18.140;2024-03-22T11:45:10;10.04;75.21
79500;SHT31;76397;53.172;18.140;2024-03-22T11:47:38;10.11;75.14
79500;SHT31;76397;53.172;18.140;2024-03-22T11:50:05;10.14;75.37
79500;SHT31;76397;53.172;18.140;2024-03-22T11:52:34;10.15;75.59
79500;SHT31;76397;53.172;18.140;2024-03-22T11:55:01;10.17;75.75
79500;SHT31;76397;53.172;18.140;2024-03-22T11:57:30;10.26;75.77
79500;SHT31;76397;53.172;18.140;2024-03-22T12:00:00;10.37;75.80
79500;SHT31;76397;53.172;18.140;2024-03-22T12:02:38;10.47;76.36
79500;SHT31;76397;53.172;18.140;2024-03-22T12:05:05;10.45;76.43
79500;SHT31;76397;53.172;18.140;2024-03-22T12:07:33;10.42;76.45
79500;SHT31;76397;53.172;18.140;2024-03-22T12:10:00;10.39;76.57
79500;SHT31;76397;53.172;18.140;2024-03-22T12:12:27;10.36;76.50
79500;SHT31;76397;53.172;18.140;2024-03-22T12:14:54;10.32;76.39
79500;SHT31;76397;53.172;18.140;2024-03-22T12:17:21;10.33;76.60
79500;SHT31;76397;53.172;18.140;2024-03-22T12:19:48;10.42;76.88
79500;SHT31;76397;53.172;18.140;2024-03-22T12:22:14;10.51;76.77
79500;SHT31;76397;53.172;18.140;2024-03-22T12:24:41;10.60;76.57
79500;SHT31;76397;53.172;18.140;2024-03-22T12:27:08;10.67;76.31
79500;SHT31;76397;53.172;18.140;2024-03-22T12:29:35;10.71;76.15
79500;SHT31;76397;53.172;18.140;2024-03-22T12:32:01;10.76;75.84
79500;SHT31;76397;53.172;18.140;2024-03-22T12:34:30;10.88;75.89
79500;SHT31;76397;53.172;18.140;2024-03-22T12:36:59;11.01;75.34
79500;SHT31;76397;53.172;18.140;2024-03-22T12:39:26;11.08;75.14
79500;SHT31;76397;53.172;18.140;2024-03-22T12:41:53;11.17;75.13
79500;SHT31;76397;53.172;18.140;2024-03-22T12:44:20;11.26;75.17
79500;SHT31;76397;53.172;18.140;2024-03-22T12:46:47;11.30;74.91
79500;SHT31;76397;53.172;18.140;2024-03-22T12:49:14;11.31;74.75
79500;SHT31;76397;53.172;18.140;2024-03-22T12:51:41;11.33;74.76
79500;SHT31;76397;53.172;18.140;2024-03-22T12:54:09;11.30;74.37
79500;SHT31;76397;53.172;18.140;2024-03-22T12:56:37;11.30;74.69
79500;SHT31;76397;53.172;18.140;2024-03-22T12:59:05;11.28;74.81
79500;SHT31;76397;53.172;18.140;2024-03-22T13:01:33;11.29;74.96
79500;SHT31;76397;53.172;18.140;2024-03-22T13:04:03;11.34;75.12
79500;SHT31;76397;53.172;18.140;2024-03-22T13:06:30;11.41;74.77
79500;SHT31;76397;53.172;18.140;2024-03-22T13:09:00;11.47;74.59
79500;SHT31;76397;53.172;18.140;2024-03-22T13:11:31;11.51;74.26
79500;SHT31;76397;53.172;18.140;2024-03-22T13:13:58;11.50;73.94
79500;SHT31;76397;53.172;18.140;2024-03-22T13:16:25;11.46;73.92
79500;SHT31;76397;53.172;18.140;2024-03-22T13:18:52;11.33;74.34
79500;SHT31;76397;53.172;18.140;2024-03-22T13:21:18;11.28;74.36
79500;SHT31;76397;53.172;18.140;2024-03-22T13:23:45;11.29;74.56
79500;SHT31;76397;53.172;18.140;2024-03-22T13:26:12;11.30;74.24
79500;SHT31;76397;53.172;18.140;2024-03-22T13:28:39;11.29;74.35
79500;SHT31;76397;53.172;18.140;2024-03-22T13:31:08;11.34;74.57
79500;SHT31;76397;53.172;18.140;2024-03-22T13:33:35;11.39;74.38
79500;SHT31;76397;53.172;18.140;2024-03-22T13:36:02;11.43;74.07
79500;SHT31;76397;53.172;18.140;2024-03-22T13:38:31;11.49;74.04
79500;SHT31;76397;53.172;18.140;2024-03-22T13:40:58;11.54;73.76
79500;SHT31;76397;53.172;18.140;2024-03-22T13:43:26;11.62;73.82
79500;SHT31;76397;53.172;18.140;2024-03-22T13:45:53;11.70;73.21
79500;SHT31;76397;53.172;18.140;2024-03-22T13:48:21;11.70;72.78
79500;SHT31;76397;53.172;18.140;2024-03-22T13:50:52;11.71;72.90
79500;SHT31;76397;53.172;18.140;2024-03-22T13:53:21;11.69;72.70
79500;SHT31;76397;53.172;18.140;2024-03-22T13:55:49;11.61;72.60
79500;SHT31;76397;53.172;18.140;2024-03-22T13:58:19;11.52;72.32
79500;SHT31;76397;53.172;18.140;2024-03-22T14:00:46;11.48;72.14
79500;SHT31;76397;53.172;18.140;2024-03-22T14:03:14;11.46;72.25
79500;SHT31;76397;53.172;18.140;2024-03-22T14:05:40;11.46;72.44
79500;SHT31;76397;53.172;18.140;2024-03-22T14:08:07;11.44;72.32
79500;SHT31;76397;53.172;18.140;2024-03-22T14:10:34;11.43;72.41
79500;SHT31;76397;53.172;18.140;2024-03-22T14:13:01;11.42;72.48
79500;SHT31;76397;53.172;18.140;2024-03-22T14:15:28;11.38;72.51
79500;SHT31;76397;53.172;18.140;2024-03-22T14:17:58;11.38;72.32
79500;SHT31;76397;53.172;18.140;2024-03-22T14:20:24;11.39;72.31
79500;SHT31;76397;53.172;18.140;2024-03-22T14:22:51;11.42;72.35
79500;SHT31;76397;53.172;18.140;2024-03-22T14:25:18;11.46;72.48
79500;SHT31;76397;53.172;18.140;2024-03-22T14:27:45;11.48;72.64
79500;SHT31;76397;53.172;18.140;2024-03-22T14:30:13;11.48;72.56
79500;SHT31;76397;53.172;18.140;2024-03-22T14:32:41;11.45;72.49
79500;SHT31;76397;53.172;18.140;2024-03-22T14:35:08;11.42;72.11
79500;SHT31;76397;53.172;18.140;2024-03-22T14:37:35;11.40;72.11
79500;SHT31;76397;53.172;18.140;2024-03-22T14:40:02;11.35;72.14
79500;SHT31;76397;53.172;18.140;2024-03-22T14:42:31;11.33;72.25
79500;SHT31;76397;53.172;18.140;2024-03-22T14:44:58;11.28;72.18
79500;SHT31;76397;53.172;18.140;2024-03-22T14:47:25;11.23;72.31
79500;SHT31;76397;53.172;18.140;2024-03-22T14:49:52;11.17;72.40
79500;SHT31;76397;53.172;18.140;2024-03-22T14:52:18;11.15;72.38
79500;SHT31;76397;53.172;18.140;2024-03-22T14:54:47;11.13;72.46
79500;SHT31;76397;53.172;18.140;2024-03-22T14:57:17;11.13;72.55
79500;SHT31;76397;53.172;18.140;2024-03-22T14:59:43;11.11;72.49
79500;SHT31;76397;53.172;18.140;2024-03-22T15:02:10;11.10;72.66
79500;SHT31;76397;53.172;18.140;2024-03-22T15:04:37;11.09;72.64
79500;SHT31;76397;53.172;18.140;2024-03-22T15:07:03;11.09;72.96
79500;SHT31;76397;53.172;18.140;2024-03-22T15:09:31;11.10;72.90
79500;SHT31;76397;53.172;18.140;2024-03-22T15:11:58;11.13;72.81
79500;SHT31;76397;53.172;18.140;2024-03-22T15:14:25;11.18;73.01
79500;SHT31;76397;53.172;18.140;2024-03-22T15:16:55;11.21;72.89
79500;SHT31;76397;53.172;18.140;2024-03-22T15:19:22;11.23;72.92
79500;SHT31;76397;53.172;18.140;2024-03-22T15:21:49;11.26;72.83
79500;SHT31;76397;53.172;18.140;2024-03-22T15:24:17;11.26;72.76
79500;SHT31;76397;53.172;18.140;2024-03-22T15:26:45;11.24;73.10
79500;SHT31;76397;53.172;18.140;2024-03-22T15:29:12;11.22;73.34